sensor_id;sensor_type;location;lat;lon;timestamp;P1;durP1;ratioP1;P2;durP2;ratioP2
22646;SDS011;11490;42.726;23.268;2022-07-10T00:02:10;18.80;;;10.40;;
22646;SDS011;11490;42.726;23.268;2022-07-10T00:04:36;16.40;;;9.35;;
22646;SDS011;11490;42.726;23.268;2022-07-10T00:07:01;13.63;;;9.23;;
22646;SDS011;11490;42.726;23.268;2022-07-10T00:09:28;11.93;;;8.85;;
22646;SDS011;11490;42.726;23.268;2022-07-10T00:11:54;13.27;;;9.55;;
22646;SDS011;11490;42.726;23.268;2022-07-10T00:14:20;14.65;;;9.88;;
22646;SDS011;11490;42.726;23.268;2022-07-10T00:16:45;13.38;;;10.07;;
22646;SDS011;11490;42.726;23.268;2022-07-10T00:19:11;14.60;;;10.02;;
22646;SDS011;11490;42.726;23.268;2022-07-10T00:21:37;16.17;;;10.10;;
22646;SDS011;11490;42.726;23.268;2022-07-10T00:24:03;13.82;;;9.23;;
22646;SDS011;11490;42.726;23.268;2022-07-10T00:26:28;14.48;;;9.57;;
22646;SDS011;11490;42.726;23.268;2022-07-10T00:28:54;13.70;;;9.73;;
22646;SDS011;11490;42.726;23.268;2022-07-10T00:31:20;12.88;;;9.07;;
22646;SDS011;11490;42.726;23.268;2022-07-10T00:33:45;15.75;;;10.23;;
22646;SDS011;11490;42.726;23.268;2022-07-10T00:36:12;16.48;;;9.70;;
22646;SDS011;11490;42.726;23.268;2022-07-10T00:38:38;13.48;;;8.85;;
22646;SDS011;11490;42.726;23.268;2022-07-10T00:41:03;14.75;;;9.73;;
22646;SDS011;11490;42.726;23.268;2022-07-10T00:43:29;18.20;;;10.18;;
22646;SDS011;11490;42.726;23.268;2022-07-10T00:45:54;13.20;;;9.23;;
22646;SDS011;11490;42.726;23.268;2022-07-10T00:48:20;15.13;;;10.18;;
22646;SDS011;11490;42.726;23.268;2022-07-10T00:50:45;14.15;;;9.73;;
22646;SDS011;11490;42.726;23.268;2022-07-10T00:53:12;14.98;;;10.00;;
22646;SDS011;11490;42.726;23.268;2022-07-10T00:55:38;14.30;;;8.93;;
22646;SDS011;11490;42.726;23.268;2022-07-10T00:58:08;13.63;;;9.68;;
22646;SDS011;11490;42.726;23.268;2022-07-10T01:00:36;14.00;;;8.93;;
22646;SDS011;11490;42.726;23.268;2022-07-10T01:03:05;13.85;;;9.15;;
22646;SDS011;11490;42.726;23.268;2022-07-10T01:05:30;12.98;;;8.57;;
22646;SDS011;11490;42.726;23.268;2022-07-10T01:07:56;15.13;;;9.98;;
22646;SDS011;11490;42.726;23.268;2022-07-10T01:10:21;12.85;;;9.85;;
22646;SDS011;11490;42.726;23.268;2022-07-10T01:12:47;12.95;;;9.25;;
22646;SDS011;11490;42.726;23.268;2022-07-10T01:15:13;16.10;;;9.13;;
22646;SDS011;11490;42.726;23.268;2022-07-10T01:17:38;11.85;;;8.45;;
22646;SDS011;11490;42.726;23.268;2022-07-10T01:20:05;12.48;;;9.05;;
22646;SDS011;11490;42.726;23.268;2022-07-10T01:22:31;11.57;;;8.68;;
22646;SDS011;11490;42.726;23.268;2022-07-10T01:24:57;12.93;;;9.10;;
22646;SDS011;11490;42.726;23.268;2022-07-10T01:27:22;12.27;;;9.00;;
22646;SDS011;11490;42.726;23.268;2022-07-10T01:29:48;13.85;;;8.93;;
22646;SDS011;11490;42.726;23.268;2022-07-10T01:32:14;13.57;;;9.10;;
22646;SDS011;11490;42.726;23.268;2022-07-10T01:34:39;14.43;;;8.65;;
22646;SDS011;11490;42.726;23.268;2022-07-10T01:37:05;13.73;;;9.30;;
22646;SDS011;11490;42.726;23.268;2022-07-10T01:39:30;14.38;;;8.90;;
22646;SDS011;11490;42.726;23.268;2022-07-10T01:41:56;12.23;;;8.23;;
22646;SDS011;11490;42.726;23.268;2022-07-10T01:44:21;12.73;;;8.63;;
22646;SDS011;11490;42.726;23.268;2022-07-10T01:46:47;13.90;;;8.85;;
22646;SDS011;11490;42.726;23.268;2022-07-10T01:49:14;10.57;;;8.55;;
22646;SDS011;11490;42.726;23.268;2022-07-10T01:51:39;13.13;;;9.10;;
22646;SDS011;11490;42.726;23.268;2022-07-10T01:54:05;12.30;;;8.20;;
22646;SDS011;11490;42.726;23.268;2022-07-10T01:56:31;10.98;;;8.10;;
22646;SDS011;11490;42.726;23.268;2022-07-10T01:58:57;12.10;;;9.05;;
22646;SDS011;11490;42.726;23.268;2022-07-10T02:01:23;11.95;;;8.63;;
22646;SDS011;11490;42.726;23.268;2022-07-10T02:03:48;16.00;;;8.75;;
22646;SDS011;11490;42.726;23.268;2022-07-10T02:06:32;11.90;;;7.88;;
22646;SDS011;11490;42.726;23.268;2022-07-10T02:08:57;12.68;;;9.02;;
22646;SDS011;11490;42.726;23.268;2022-07-10T02:11:23;12.98;;;8.85;;
22646;SDS011;11490;42.726;23.268;2022-07-10T02:13:48;11.88;;;8.63;;
22646;SDS011;11490;42.726;23.268;2022-07-10T02:16:14;17.08;;;8.77;;
22646;SDS011;11490;42.726;23.268;2022-07-10T02:18:39;13.77;;;8.50;;
22646;SDS011;11490;42.726;23.268;2022-07-10T02:21:05;12.82;;;8.85;;
22646;SDS011;11490;42.726;23.268;2022-07-10T02:23:34;12.23;;;8.57;;
22646;SDS011;11490;42.726;23.268;2022-07-10T02:26:00;13.32;;;9.10;;
22646;SDS011;11490;42.726;23.268;2022-07-10T02:28:26;10.85;;;8.60;;
22646;SDS011;11490;42.726;23.268;2022-07-10T02:30:52;12.70;;;8.80;;
22646;SDS011;11490;42.726;23.268;2022-07-10T02:33:17;11.13;;;7.95;;
22646;SDS011;11490;42.726;23.268;2022-07-10T02:35:42;11.35;;;8.48;;
22646;SDS011;11490;42.726;23.268;2022-07-10T02:38:08;13.00;;;9.15;;
22646;SDS011;11490;42.726;23.268;2022-07-10T02:40:33;13.32;;;8.55;;
22646;SDS011;11490;42.726;23.268;2022-07-10T02:42:58;11.70;;;8.38;;
22646;SDS011;11490;42.726;23.268;2022-07-10T02:45:24;12.77;;;8.80;;
22646;SDS011;11490;42.726;23.268;2022-07-10T02:47:49;15.10;;;8.20;;
22646;SDS011;11490;42.726;23.268;2022-07-10T02:50:15;14.80;;;9.10;;
22646;SDS011;11490;42.726;23.268;2022-07-10T02:52:40;15.10;;;9.32;;
22646;SDS011;11490;42.726;23.268;2022-07-10T02:55:06;10.85;;;7.93;;
22646;SDS011;11490;42.726;23.268;2022-07-10T02:57:31;14.40;;;8.52;;
22646;SDS011;11490;42.726;23.268;2022-07-10T02:59:57;14.73;;;8.52;;
22646;SDS011;11490;42.726;23.268;2022-07-10T03:02:22;13.52;;;8.73;;
22646;SDS011;11490;42.726;23.268;2022-07-10T03:04:48;12.88;;;8.52;;
22646;SDS011;11490;42.726;23.268;2022-07-10T03:07:13;11.65;;;8.70;;
22646;SDS011;11490;42.726;23.268;2022-07-10T03:09:39;11.43;;;7.53;;
22646;SDS011;11490;42.726;23.268;2022-07-10T03:12:04;12.30;;;8.65;;
22646;SDS011;11490;42.726;23.268;2022-07-10T03:14:30;13.73;;;9.32;;
22646;SDS011;11490;42.726;23.268;2022-07-10T03:16:56;12.02;;;8.70;;
22646;SDS011;11490;42.726;23.268;2022-07-10T03:19:21;14.82;;;8.55;;
22646;SDS011;11490;42.726;23.268;2022-07-10T03:21:46;10.52;;;8.05;;
22646;SDS011;11490;42.726;23.268;2022-07-10T03:24:12;12.77;;;7.97;;
22646;SDS011;11490;42.726;23.268;2022-07-10T03:26:38;23.55;;;9.70;;
22646;SDS011;11490;42.726;23.268;2022-07-10T03:29:05;13.13;;;8.85;;
22646;SDS011;11490;42.726;23.268;2022-07-10T03:31:30;12.32;;;9.23;;
22646;SDS011;11490;42.726;23.268;2022-07-10T03:33:56;13.52;;;9.55;;
22646;SDS011;11490;42.726;23.268;2022-07-10T03:36:21;12.48;;;9.48;;
22646;SDS011;11490;42.726;23.268;2022-07-10T03:38:47;13.93;;;9.45;;
22646;SDS011;11490;42.726;23.268;2022-07-10T03:41:13;11.60;;;8.48;;
22646;SDS011;11490;42.726;23.268;2022-07-10T03:43:39;12.45;;;8.55;;
22646;SDS011;11490;42.726;23.268;2022-07-10T03:46:04;12.80;;;8.73;;
22646;SDS011;11490;42.726;23.268;2022-07-10T03:48:30;12.68;;;8.32;;
22646;SDS011;11490;42.726;23.268;2022-07-10T03:50:55;18.98;;;9.02;;
22646;SDS011;11490;42.726;23.268;2022-07-10T03:53:21;14.75;;;9.15;;
22646;SDS011;11490;42.726;23.268;2022-07-10T03:55:46;10.73;;;7.97;;
22646;SDS011;11490;42.726;23.268;2022-07-10T03:58:12;18.05;;;8.75;;
22646;SDS011;11490;42.726;23.268;2022-07-10T04:00:37;11.13;;;8.30;;
22646;SDS011;11490;42.726;23.268;2022-07-10T04:03:04;13.63;;;8.60;;
22646;SDS011;11490;42.726;23.268;2022-07-10T04:05:31;13.13;;;8.05;;
22646;SDS011;11490;42.726;23.268;2022-07-10T04:07:57;12.93;;;8.82;;
22646;SDS011;11490;42.726;23.268;2022-07-10T04:10:23;13.88;;;8.95;;
22646;SDS011;11490;42.726;23.268;2022-07-10T04:12:50;12.48;;;8.43;;
22646;SDS011;11490;42.726;23.268;2022-07-10T04:15:16;10.60;;;7.25;;
22646;SDS011;11490;42.726;23.268;2022-07-10T04:17:42;13.57;;;9.45;;
22646;SDS011;11490;42.726;23.268;2022-07-10T04:20:07;10.90;;;8.23;;
22646;SDS011;11490;42.726;23.268;2022-07-10T04:22:33;12.88;;;8.27;;
22646;SDS011;11490;42.726;23.268;2022-07-10T04:24:59;10.77;;;7.75;;
22646;SDS011;11490;42.726;23.268;2022-07-10T04:27:27;10.30;;;7.55;;
22646;SDS011;11490;42.726;23.268;2022-07-10T04:29:55;10.38;;;7.45;;
22646;SDS011;11490;42.726;23.268;2022-07-10T04:32:21;11.45;;;7.68;;
22646;SDS011;11490;42.726;23.268;2022-07-10T04:34:46;10.00;;;7.35;;
22646;SDS011;11490;42.726;23.268;2022-07-10T04:37:12;13.32;;;8.18;;
22646;SDS011;11490;42.726;23.268;2022-07-10T04:39:38;9.50;;;7.05;;
22646;SDS011;11490;42.726;23.268;2022-07-10T04:42:04;11.07;;;7.60;;
22646;SDS011;11490;42.726;23.268;2022-07-10T04:44:31;12.18;;;8.05;;
22646;SDS011;11490;42.726;23.268;2022-07-10T04:46:57;11.07;;;8.25;;
22646;SDS011;11490;42.726;23.268;2022-07-10T04:49:23;9.77;;;7.50;;
22646;SDS011;11490;42.726;23.268;2022-07-10T04:51:48;10.85;;;7.80;;
22646;SDS011;11490;42.726;23.268;2022-07-10T04:54:14;9.45;;;6.97;;
22646;SDS011;11490;42.726;23.268;2022-07-10T04:56:39;12.73;;;8.35;;
22646;SDS011;11490;42.726;23.268;2022-07-10T04:59:06;11.18;;;7.53;;
22646;SDS011;11490;42.726;23.268;2022-07-10T05:01:32;10.13;;;6.82;;
22646;SDS011;11490;42.726;23.268;2022-07-10T05:03:58;15.07;;;7.28;;
22646;SDS011;11490;42.726;23.268;2022-07-10T05:06:23;10.13;;;7.38;;
22646;SDS011;11490;42.726;23.268;2022-07-10T05:08:49;11.82;;;7.47;;
22646;SDS011;11490;42.726;23.268;2022-07-10T05:11:14;8.25;;;6.63;;
22646;SDS011;11490;42.726;23.268;2022-07-10T05:13:40;8.52;;;6.60;;
22646;SDS011;11490;42.726;23.268;2022-07-10T05:16:09;9.05;;;6.47;;
22646;SDS011;11490;42.726;23.268;2022-07-10T05:18:34;14.90;;;6.93;;
22646;SDS011;11490;42.726;23.268;2022-07-10T05:20:59;8.43;;;6.22;;
22646;SDS011;11490;42.726;23.268;2022-07-10T05:23:25;11.95;;;7.25;;
22646;SDS011;11490;42.726;23.268;2022-07-10T05:25:50;8.15;;;6.20;;
22646;SDS011;11490;42.726;23.268;2022-07-10T05:28:15;8.10;;;6.45;;
22646;SDS011;11490;42.726;23.268;2022-07-10T05:30:41;9.50;;;6.45;;
22646;SDS011;11490;42.726;23.268;2022-07-10T05:33:07;9.10;;;6.45;;
22646;SDS011;11490;42.726;23.268;2022-07-10T05:35:32;14.13;;;6.47;;
22646;SDS011;11490;42.726;23.268;2022-07-10T05:37:58;8.65;;;6.28;;
22646;SDS011;11490;42.726;23.268;2022-07-10T05:40:24;10.05;;;6.45;;
22646;SDS011;11490;42.726;23.268;2022-07-10T05:42:49;12.93;;;7.40;;
22646;SDS011;11490;42.726;23.268;2022-07-10T05:45:14;9.00;;;6.55;;
22646;SDS011;11490;42.726;23.268;2022-07-10T05:47:40;9.52;;;7.00;;
22646;SDS011;11490;42.726;23.268;2022-07-10T05:50:05;8.60;;;6.32;;
22646;SDS011;11490;42.726;23.268;2022-07-10T05:52:31;9.55;;;6.20;;
22646;SDS011;11490;42.726;23.268;2022-07-10T05:54:57;7.45;;;6.10;;
22646;SDS011;11490;42.726;23.268;2022-07-10T05:57:22;9.10;;;5.57;;
22646;SDS011;11490;42.726;23.268;2022-07-10T05:59:48;8.60;;;6.22;;
22646;SDS011;11490;42.726;23.268;2022-07-10T06:02:14;8.38;;;6.43;;
22646;SDS011;11490;42.726;23.268;2022-07-10T06:04:40;7.38;;;5.55;;
22646;SDS011;11490;42.726;23.268;2022-07-10T06:07:05;8.15;;;5.82;;
22646;SDS011;11490;42.726;23.268;2022-07-10T06:09:31;9.43;;;5.68;;
22646;SDS011;11490;42.726;23.268;2022-07-10T06:11:56;11.07;;;5.90;;
22646;SDS011;11490;42.726;23.268;2022-07-10T06:14:21;7.43;;;5.65;;
22646;SDS011;11490;42.726;23.268;2022-07-10T06:16:47;6.03;;;5.18;;
22646;SDS011;11490;42.726;23.268;2022-07-10T06:19:12;10.20;;;5.63;;
22646;SDS011;11490;42.726;23.268;2022-07-10T06:21:38;7.05;;;5.25;;
22646;SDS011;11490;42.726;23.268;2022-07-10T06:24:03;9.98;;;5.50;;
22646;SDS011;11490;42.726;23.268;2022-07-10T06:26:29;7.43;;;5.10;;
22646;SDS011;11490;42.726;23.268;2022-07-10T06:28:54;5.97;;;4.78;;
22646;SDS011;11490;42.726;23.268;2022-07-10T06:31:20;6.93;;;4.80;;
22646;SDS011;11490;42.726;23.268;2022-07-10T06:33:45;6.68;;;5.13;;
22646;SDS011;11490;42.726;23.268;2022-07-10T06:36:11;5.80;;;4.85;;
22646;SDS011;11490;42.726;23.268;2022-07-10T06:38:37;6.45;;;4.88;;
22646;SDS011;11490;42.726;23.268;2022-07-10T06:41:03;7.68;;;4.32;;
22646;SDS011;11490;42.726;23.268;2022-07-10T06:43:28;6.78;;;4.32;;
22646;SDS011;11490;42.726;23.268;2022-07-10T06:45:54;5.50;;;4.25;;
22646;SDS011;11490;42.726;23.268;2022-07-10T06:48:20;11.65;;;5.20;;
22646;SDS011;11490;42.726;23.268;2022-07-10T06:50:46;5.68;;;4.22;;
22646;SDS011;11490;42.726;23.268;2022-07-10T06:53:12;10.95;;;4.43;;
22646;SDS011;11490;42.726;23.268;2022-07-10T06:55:37;7.57;;;4.05;;
22646;SDS011;11490;42.726;23.268;2022-07-10T06:58:03;6.22;;;4.22;;
22646;SDS011;11490;42.726;23.268;2022-07-10T07:00:28;5.28;;;4.00;;
22646;SDS011;11490;42.726;23.268;2022-07-10T07:02:54;6.03;;;4.75;;
22646;SDS011;11490;42.726;23.268;2022-07-10T07:05:20;6.18;;;4.65;;
22646;SDS011;11490;42.726;23.268;2022-07-10T07:07:45;8.18;;;4.93;;
22646;SDS011;11490;42.726;23.268;2022-07-10T07:10:11;7.93;;;4.85;;
22646;SDS011;11490;42.726;23.268;2022-07-10T07:12:36;6.57;;;4.65;;
22646;SDS011;11490;42.726;23.268;2022-07-10T07:15:02;6.15;;;4.45;;
22646;SDS011;11490;42.726;23.268;2022-07-10T07:17:28;5.45;;;4.18;;
22646;SDS011;11490;42.726;23.268;2022-07-10T07:20:11;6.13;;;4.80;;
22646;SDS011;11490;42.726;23.268;2022-07-10T07:22:55;6.68;;;4.47;;
22646;SDS011;11490;42.726;23.268;2022-07-10T07:25:39;5.53;;;4.03;;
22646;SDS011;11490;42.726;23.268;2022-07-10T07:28:07;5.30;;;3.70;;
22646;SDS011;11490;42.726;23.268;2022-07-10T07:30:34;9.90;;;3.85;;
22646;SDS011;11490;42.726;23.268;2022-07-10T07:32:59;5.70;;;4.25;;
22646;SDS011;11490;42.726;23.268;2022-07-10T07:35:24;6.75;;;4.38;;
22646;SDS011;11490;42.726;23.268;2022-07-10T07:37:50;7.68;;;4.32;;
22646;SDS011;11490;42.726;23.268;2022-07-10T07:40:17;5.30;;;3.95;;
22646;SDS011;11490;42.726;23.268;2022-07-10T07:42:46;6.25;;;3.70;;
22646;SDS011;11490;42.726;23.268;2022-07-10T07:45:12;4.68;;;3.60;;
22646;SDS011;11490;42.726;23.268;2022-07-10T07:47:47;6.55;;;3.80;;
22646;SDS011;11490;42.726;23.268;2022-07-10T08:10:37;3.95;;;2.90;;
22646;SDS011;11490;42.726;23.268;2022-07-10T08:13:03;4.75;;;3.30;;
22646;SDS011;11490;42.726;23.268;2022-07-10T08:15:29;5.50;;;3.05;;
22646;SDS011;11490;42.726;23.268;2022-07-10T08:17:56;7.35;;;3.17;;
22646;SDS011;11490;42.726;23.268;2022-07-10T08:20:26;6.97;;;3.60;;
22646;SDS011;11490;42.726;23.268;2022-07-10T08:22:52;3.80;;;3.13;;
22646;SDS011;11490;42.726;23.268;2022-07-10T08:25:19;4.38;;;3.08;;
22646;SDS011;11490;42.726;23.268;2022-07-10T08:27:44;4.57;;;3.30;;
22646;SDS011;11490;42.726;23.268;2022-07-10T08:30:10;4.15;;;2.70;;
22646;SDS011;11490;42.726;23.268;2022-07-10T08:32:40;4.03;;;3.15;;
22646;SDS011;11490;42.726;23.268;2022-07-10T08:35:06;5.00;;;2.83;;
22646;SDS011;11490;42.726;23.268;2022-07-10T08:37:39;5.47;;;2.67;;
22646;SDS011;11490;42.726;23.268;2022-07-10T08:40:05;4.25;;;2.83;;
22646;SDS011;11490;42.726;23.268;2022-07-10T08:42:33;4.18;;;3.13;;
22646;SDS011;11490;42.726;23.268;2022-07-10T08:44:59;3.42;;;2.70;;
22646;SDS011;11490;42.726;23.268;2022-07-10T08:47:25;7.20;;;3.28;;
22646;SDS011;11490;42.726;23.268;2022-07-10T08:49:50;3.78;;;3.10;;
22646;SDS011;11490;42.726;23.268;2022-07-10T08:52:26;4.65;;;3.30;;
22646;SDS011;11490;42.726;23.268;2022-07-10T08:54:57;5.05;;;2.90;;
22646;SDS011;11490;42.726;23.268;2022-07-10T08:57:23;3.92;;;2.75;;
22646;SDS011;11490;42.726;23.268;2022-07-10T08:59:49;6.10;;;4.53;;
22646;SDS011;11490;42.726;23.268;2022-07-10T09:02:15;5.10;;;3.05;;
22646;SDS011;11490;42.726;23.268;2022-07-10T09:04:41;6.70;;;4.32;;
22646;SDS011;11490;42.726;23.268;2022-07-10T09:07:06;6.53;;;3.30;;
22646;SDS011;11490;42.726;23.268;2022-07-10T09:09:53;3.92;;;2.55;;
22646;SDS011;11490;42.726;23.268;2022-07-10T09:12:23;4.18;;;2.85;;
22646;SDS011;11490;42.726;23.268;2022-07-10T09:14:50;4.22;;;3.08;;
22646;SDS011;11490;42.726;23.268;2022-07-10T09:25:11;4.35;;;2.67;;
22646;SDS011;11490;42.726;23.268;2022-07-10T09:28:10;5.35;;;2.67;;
22646;SDS011;11490;42.726;23.268;2022-07-10T09:31:23;3.60;;;2.85;;
22646;SDS011;11490;42.726;23.268;2022-07-10T09:34:19;5.25;;;2.70;;
22646;SDS011;11490;42.726;23.268;2022-07-10T09:37:47;4.13;;;2.90;;
22646;SDS011;11490;42.726;23.268;2022-07-10T09:40:30;4.38;;;2.60;;
22646;SDS011;11490;42.726;23.268;2022-07-10T09:58:12;3.53;;;2.60;;
22646;SDS011;11490;42.726;23.268;2022-07-10T10:00:48;7.25;;;2.65;;
22646;SDS011;11490;42.726;23.268;2022-07-10T10:03:27;3.05;;;2.22;;
22646;SDS011;11490;42.726;23.268;2022-07-10T10:06:15;3.08;;;1.88;;
22646;SDS011;11490;42.726;23.268;2022-07-10T10:08:48;3.20;;;2.13;;
22646;SDS011;11490;42.726;23.268;2022-07-10T10:11:29;3.53;;;2.17;;
22646;SDS011;11490;42.726;23.268;2022-07-10T10:14:15;7.32;;;5.35;;
22646;SDS011;11490;42.726;23.268;2022-07-10T10:16:57;5.82;;;3.30;;
22646;SDS011;11490;42.726;23.268;2022-07-10T10:19:41;3.28;;;2.63;;
22646;SDS011;11490;42.726;23.268;2022-07-10T10:22:27;5.75;;;3.00;;
22646;SDS011;11490;42.726;23.268;2022-07-10T10:24:54;4.93;;;2.20;;
22646;SDS011;11490;42.726;23.268;2022-07-10T10:27:21;3.42;;;1.80;;
22646;SDS011;11490;42.726;23.268;2022-07-10T10:29:48;2.92;;;1.83;;
22646;SDS011;11490;42.726;23.268;2022-07-10T10:32:16;3.63;;;2.00;;
22646;SDS011;11490;42.726;23.268;2022-07-10T10:34:48;5.18;;;2.25;;
22646;SDS011;11490;42.726;23.268;2022-07-10T10:39:53;4.15;;;2.28;;
22646;SDS011;11490;42.726;23.268;2022-07-10T11:08:06;3.03;;;2.22;;
22646;SDS011;11490;42.726;23.268;2022-07-10T11:13:02;6.63;;;3.05;;
22646;SDS011;11490;42.726;23.268;2022-07-10T11:15:29;3.03;;;2.33;;
22646;SDS011;11490;42.726;23.268;2022-07-10T12:51:59;1.85;;;1.30;;
22646;SDS011;11490;42.726;23.268;2022-07-10T12:54:34;3.13;;;1.25;;
22646;SDS011;11490;42.726;23.268;2022-07-10T12:57:03;2.47;;;1.40;;
22646;SDS011;11490;42.726;23.268;2022-07-10T12:59:32;2.60;;;1.77;;
22646;SDS011;11490;42.726;23.268;2022-07-10T13:01:59;1.88;;;1.23;;
22646;SDS011;11490;42.726;23.268;2022-07-10T13:04:56;3.58;;;1.40;;
22646;SDS011;11490;42.726;23.268;2022-07-10T13:07:29;1.88;;;1.38;;
22646;SDS011;11490;42.726;23.268;2022-07-10T13:10:05;2.22;;;1.40;;
22646;SDS011;11490;42.726;23.268;2022-07-10T13:12:32;4.30;;;1.52;;
22646;SDS011;11490;42.726;23.268;2022-07-10T13:14:58;2.50;;;1.15;;
22646;SDS011;11490;42.726;23.268;2022-07-10T13:17:23;5.18;;;1.42;;
22646;SDS011;11490;42.726;23.268;2022-07-10T13:19:49;2.13;;;1.05;;
22646;SDS011;11490;42.726;23.268;2022-07-10T13:22:16;1.40;;;0.93;;
22646;SDS011;11490;42.726;23.268;2022-07-10T13:24:41;1.90;;;1.10;;
22646;SDS011;11490;42.726;23.268;2022-07-10T13:27:07;5.80;;;1.25;;
22646;SDS011;11490;42.726;23.268;2022-07-10T13:29:36;1.27;;;1.08;;
22646;SDS011;11490;42.726;23.268;2022-07-10T13:32:01;1.70;;;0.85;;
22646;SDS011;11490;42.726;23.268;2022-07-10T13:34:27;3.47;;;0.98;;
22646;SDS011;11490;42.726;23.268;2022-07-10T13:36:54;1.58;;;0.95;;
22646;SDS011;11490;42.726;23.268;2022-07-10T13:39:20;3.13;;;1.30;;
22646;SDS011;11490;42.726;23.268;2022-07-10T13:41:46;1.33;;;1.15;;
22646;SDS011;11490;42.726;23.268;2022-07-10T13:44:11;2.75;;;1.63;;
22646;SDS011;11490;42.726;23.268;2022-07-10T13:46:38;4.50;;;1.67;;
22646;SDS011;11490;42.726;23.268;2022-07-10T13:49:05;4.50;;;1.42;;
22646;SDS011;11490;42.726;23.268;2022-07-10T13:51:31;1.67;;;1.10;;
22646;SDS011;11490;42.726;23.268;2022-07-10T13:53:57;1.98;;;1.27;;
22646;SDS011;11490;42.726;23.268;2022-07-10T13:56:22;3.33;;;1.35;;
22646;SDS011;11490;42.726;23.268;2022-07-10T13:58:51;4.05;;;1.42;;
22646;SDS011;11490;42.726;23.268;2022-07-10T14:01:17;3.42;;;1.30;;
22646;SDS011;11490;42.726;23.268;2022-07-10T14:03:43;1.45;;;1.15;;
22646;SDS011;11490;42.726;23.268;2022-07-10T14:06:08;4.25;;;1.38;;
22646;SDS011;11490;42.726;23.268;2022-07-10T14:08:33;7.60;;;4.32;;
22646;SDS011;11490;42.726;23.268;2022-07-10T14:10:59;3.70;;;1.50;;
22646;SDS011;11490;42.726;23.268;2022-07-10T14:13:24;2.55;;;1.55;;
22646;SDS011;11490;42.726;23.268;2022-07-10T14:15:50;2.92;;;1.45;;
22646;SDS011;11490;42.726;23.268;2022-07-10T14:18:15;2.13;;;1.30;;
22646;SDS011;11490;42.726;23.268;2022-07-10T14:21:00;5.85;;;1.60;;
22646;SDS011;11490;42.726;23.268;2022-07-10T14:23:29;1.80;;;1.13;;
22646;SDS011;11490;42.726;23.268;2022-07-10T14:25:56;2.60;;;1.25;;
22646;SDS011;11490;42.726;23.268;2022-07-10T14:28:22;1.63;;;1.15;;
22646;SDS011;11490;42.726;23.268;2022-07-10T14:30:48;1.30;;;1.10;;
22646;SDS011;11490;42.726;23.268;2022-07-10T14:33:14;2.97;;;1.27;;
22646;SDS011;11490;42.726;23.268;2022-07-10T14:35:39;1.88;;;1.42;;
22646;SDS011;11490;42.726;23.268;2022-07-10T14:38:05;2.58;;;1.38;;
22646;SDS011;11490;42.726;23.268;2022-07-10T14:40:30;4.28;;;1.70;;
22646;SDS011;11490;42.726;23.268;2022-07-10T14:42:56;3.70;;;1.27;;
22646;SDS011;11490;42.726;23.268;2022-07-10T14:45:22;3.85;;;1.48;;
22646;SDS011;11490;42.726;23.268;2022-07-10T14:47:49;2.08;;;1.55;;
22646;SDS011;11490;42.726;23.268;2022-07-10T14:50:14;1.75;;;1.45;;
22646;SDS011;11490;42.726;23.268;2022-07-10T14:52:41;3.08;;;1.90;;
22646;SDS011;11490;42.726;23.268;2022-07-10T14:55:10;6.07;;;1.60;;
22646;SDS011;11490;42.726;23.268;2022-07-10T14:57:36;2.83;;;1.40;;
22646;SDS011;11490;42.726;23.268;2022-07-10T15:00:01;2.00;;;1.40;;
22646;SDS011;11490;42.726;23.268;2022-07-10T15:02:27;3.30;;;1.90;;
22646;SDS011;11490;42.726;23.268;2022-07-10T15:04:52;3.20;;;1.95;;
22646;SDS011;11490;42.726;23.268;2022-07-10T15:07:18;2.30;;;1.58;;
22646;SDS011;11490;42.726;23.268;2022-07-10T15:09:44;1.85;;;1.45;;
22646;SDS011;11490;42.726;23.268;2022-07-10T15:12:10;2.33;;;1.52;;
22646;SDS011;11490;42.726;23.268;2022-07-10T15:14:35;1.83;;;1.17;;
22646;SDS011;11490;42.726;23.268;2022-07-10T15:17:01;3.35;;;1.50;;
22646;SDS011;11490;42.726;23.268;2022-07-10T15:19:26;3.65;;;1.58;;
22646;SDS011;11490;42.726;23.268;2022-07-10T15:21:52;2.63;;;1.70;;
22646;SDS011;11490;42.726;23.268;2022-07-10T15:24:17;3.00;;;1.60;;
22646;SDS011;11490;42.726;23.268;2022-07-10T15:26:43;2.80;;;1.40;;
22646;SDS011;11490;42.726;23.268;2022-07-10T15:29:09;2.13;;;1.60;;
22646;SDS011;11490;42.726;23.268;2022-07-10T15:31:34;2.80;;;1.77;;
22646;SDS011;11490;42.726;23.268;2022-07-10T15:34:01;2.72;;;1.60;;
22646;SDS011;11490;42.726;23.268;2022-07-10T15:36:32;8.25;;;2.10;;
22646;SDS011;11490;42.726;23.268;2022-07-10T15:38:57;2.10;;;1.65;;
22646;SDS011;11490;42.726;23.268;2022-07-10T15:41:23;3.08;;;1.80;;
22646;SDS011;11490;42.726;23.268;2022-07-10T15:43:48;3.58;;;1.70;;
22646;SDS011;11490;42.726;23.268;2022-07-10T15:46:14;2.50;;;1.98;;
22646;SDS011;11490;42.726;23.268;2022-07-10T15:48:40;2.83;;;2.30;;
22646;SDS011;11490;42.726;23.268;2022-07-10T15:51:07;4.18;;;2.20;;
22646;SDS011;11490;42.726;23.268;2022-07-10T15:53:32;5.32;;;2.10;;
22646;SDS011;11490;42.726;23.268;2022-07-10T15:55:58;3.42;;;2.38;;
22646;SDS011;11490;42.726;23.268;2022-07-10T15:58:23;2.92;;;2.53;;
22646;SDS011;11490;42.726;23.268;2022-07-10T16:00:49;6.10;;;2.55;;
22646;SDS011;11490;42.726;23.268;2022-07-10T16:03:14;3.63;;;2.60;;
22646;SDS011;11490;42.726;23.268;2022-07-10T16:05:39;2.88;;;2.40;;
22646;SDS011;11490;42.726;23.268;2022-07-10T16:08:05;2.92;;;2.25;;
22646;SDS011;11490;42.726;23.268;2022-07-10T16:10:30;4.75;;;2.28;;
22646;SDS011;11490;42.726;23.268;2022-07-10T16:12:56;4.13;;;2.30;;
22646;SDS011;11490;42.726;23.268;2022-07-10T16:15:21;3.10;;;2.50;;
22646;SDS011;11490;42.726;23.268;2022-07-10T16:17:47;3.22;;;2.50;;
22646;SDS011;11490;42.726;23.268;2022-07-10T16:20:12;2.97;;;2.10;;
22646;SDS011;11490;42.726;23.268;2022-07-10T16:22:39;4.95;;;2.42;;
22646;SDS011;11490;42.726;23.268;2022-07-10T16:25:04;2.75;;;2.33;;
22646;SDS011;11490;42.726;23.268;2022-07-10T16:27:49;3.40;;;2.33;;
22646;SDS011;11490;42.726;23.268;2022-07-10T16:30:14;4.55;;;2.40;;
22646;SDS011;11490;42.726;23.268;2022-07-10T16:32:40;3.40;;;1.85;;
22646;SDS011;11490;42.726;23.268;2022-07-10T16:35:05;2.67;;;1.70;;
22646;SDS011;11490;42.726;23.268;2022-07-10T16:37:31;5.00;;;1.35;;
22646;SDS011;11490;42.726;23.268;2022-07-10T16:39:57;2.22;;;1.65;;
22646;SDS011;11490;42.726;23.268;2022-07-10T16:42:23;2.05;;;1.58;;
22646;SDS011;11490;42.726;23.268;2022-07-10T16:44:48;2.72;;;1.60;;
22646;SDS011;11490;42.726;23.268;2022-07-10T16:47:14;2.28;;;1.60;;
22646;SDS011;11490;42.726;23.268;2022-07-10T16:49:40;3.85;;;1.60;;
22646;SDS011;11490;42.726;23.268;2022-07-10T16:52:06;1.77;;;1.30;;
22646;SDS011;11490;42.726;23.268;2022-07-10T16:54:31;3.20;;;1.80;;
22646;SDS011;11490;42.726;23.268;2022-07-10T16:56:57;1.88;;;1.50;;
22646;SDS011;11490;42.726;23.268;2022-07-10T16:59:22;5.13;;;2.00;;
22646;SDS011;11490;42.726;23.268;2022-07-10T17:01:48;2.33;;;1.75;;
22646;SDS011;11490;42.726;23.268;2022-07-10T17:04:13;2.55;;;1.60;;
22646;SDS011;11490;42.726;23.268;2022-07-10T17:06:38;3.08;;;1.77;;
22646;SDS011;11490;42.726;23.268;2022-07-10T17:09:04;3.15;;;1.90;;
22646;SDS011;11490;42.726;23.268;2022-07-10T17:11:29;2.65;;;1.60;;
22646;SDS011;11490;42.726;23.268;2022-07-10T17:13:55;2.58;;;1.90;;
22646;SDS011;11490;42.726;23.268;2022-07-10T17:16:21;2.42;;;1.60;;
22646;SDS011;11490;42.726;23.268;2022-07-10T17:18:47;3.45;;;1.85;;